sensor_id;sensor_type;location;lat;lon;timestamp;P1;durP1;ratioP1;P2;durP2;ratioP2
75289;SDS011;63883;48.996;20.804;2023-04-03T00:01:35;0.80;;;0.80;;
75289;SDS011;63883;48.996;20.804;2023-04-03T00:04:04;0.80;;;0.80;;
75289;SDS011;63883;48.996;20.804;2023-04-03T00:06:31;0.73;;;0.70;;
75289;SDS011;63883;48.996;20.804;2023-04-03T00:08:57;0.90;;;0.90;;
75289;SDS011;63883;48.996;20.804;2023-04-03T00:11:23;0.85;;;0.80;;
75289;SDS011;63883;48.996;20.804;2023-04-03T00:13:49;0.80;;;0.73;;
75289;SDS011;63883;48.996;20.804;2023-04-03T00:16:15;0.68;;;0.68;;
75289;SDS011;63883;48.996;20.804;2023-04-03T00:18:41;0.80;;;0.80;;
75289;SDS011;63883;48.996;20.804;2023-04-03T00:21:06;0.70;;;0.70;;
75289;SDS011;63883;48.996;20.804;2023-04-03T00:23:33;1.17;;;0.90;;
75289;SDS011;63883;48.996;20.804;2023-04-03T00:25:59;0.80;;;0.80;;
75289;SDS011;63883;48.996;20.804;2023-04-03T00:28:25;0.70;;;0.70;;
75289;SDS011;63883;48.996;20.804;2023-04-03T00:30:51;0.63;;;0.63;;
75289;SDS011;63883;48.996;20.804;2023-04-03T00:33:17;0.75;;;0.75;;
75289;SDS011;63883;48.996;20.804;2023-04-03T00:35:47;0.70;;;0.70;;
75289;SDS011;63883;48.996;20.804;2023-04-03T00:38:14;0.80;;;0.80;;
75289;SDS011;63883;48.996;20.804;2023-04-03T00:40:44;0.90;;;0.90;;
75289;SDS011;63883;48.996;20.804;2023-04-03T00:43:20;0.70;;;0.70;;
75289;SDS011;63883;48.996;20.804;2023-04-03T00:45:53;0.57;;;0.57;;
75289;SDS011;63883;48.996;20.804;2023-04-03T00:50:47;0.70;;;0.70;;
75289;SDS011;63883;48.996;20.804;2023-04-03T00:53:15;0.70;;;0.70;;
75289;SDS011;63883;48.996;20.804;2023-04-03T00:55:44;0.70;;;0.70;;
75289;SDS011;63883;48.996;20.804;2023-04-03T00:58:13;0.63;;;0.60;;
75289;SDS011;63883;48.996;20.804;2023-04-03T01:00:42;0.70;;;0.70;;
75289;SDS011;63883;48.996;20.804;2023-04-03T01:03:12;0.68;;;0.68;;
75289;SDS011;63883;48.996;20.804;2023-04-03T01:05:37;0.70;;;0.70;;
75289;SDS011;63883;48.996;20.804;2023-04-03T01:08:03;0.93;;;0.90;;
75289;SDS011;63883;48.996;20.804;2023-04-03T01:10:30;0.70;;;0.70;;
75289;SDS011;63883;48.996;20.804;2023-04-03T01:12:56;1.15;;;0.65;;
75289;SDS011;63883;48.996;20.804;2023-04-03T01:15:23;0.63;;;0.63;;
75289;SDS011;63883;48.996;20.804;2023-04-03T01:17:53;0.80;;;0.65;;
75289;SDS011;63883;48.996;20.804;2023-04-03T01:25:31;0.60;;;0.60;;
75289;SDS011;63883;48.996;20.804;2023-04-03T01:27:57;0.60;;;0.60;;
75289;SDS011;63883;48.996;20.804;2023-04-03T01:30:24;0.70;;;0.70;;
75289;SDS011;63883;48.996;20.804;2023-04-03T01:32:56;0.70;;;0.70;;
75289;SDS011;63883;48.996;20.804;2023-04-03T01:35:22;1.75;;;0.70;;
75289;SDS011;63883;48.996;20.804;2023-04-03T01:37:48;0.73;;;0.73;;
75289;SDS011;63883;48.996;20.804;2023-04-03T01:40:14;0.65;;;0.65;;
75289;SDS011;63883;48.996;20.804;2023-04-03T01:42:40;0.80;;;0.80;;
75289;SDS011;63883;48.996;20.804;2023-04-03T01:45:06;0.65;;;0.65;;
75289;SDS011;63883;48.996;20.804;2023-04-03T01:47:32;0.70;;;0.70;;
75289;SDS011;63883;48.996;20.804;2023-04-03T01:49:58;0.93;;;0.60;;
75289;SDS011;63883;48.996;20.804;2023-04-03T01:52:24;0.70;;;0.70;;
75289;SDS011;63883;48.996;20.804;2023-04-03T01:54:50;0.98;;;0.70;;
75289;SDS011;63883;48.996;20.804;2023-04-03T01:57:16;0.70;;;0.70;;
75289;SDS011;63883;48.996;20.804;2023-04-03T01:59:41;1.02;;;0.80;;
75289;SDS011;63883;48.996;20.804;2023-04-03T02:02:07;1.02;;;0.80;;
75289;SDS011;63883;48.996;20.804;2023-04-03T02:04:33;0.70;;;0.70;;
75289;SDS011;63883;48.996;20.804;2023-04-03T02:06:59;0.60;;;0.60;;
75289;SDS011;63883;48.996;20.804;2023-04-03T02:09:24;0.60;;;0.60;;
75289;SDS011;63883;48.996;20.804;2023-04-03T02:11:52;0.70;;;0.70;;
75289;SDS011;63883;48.996;20.804;2023-04-03T02:14:18;0.60;;;0.60;;
75289;SDS011;63883;48.996;20.804;2023-04-03T02:16:44;0.73;;;0.73;;
75289;SDS011;63883;48.996;20.804;2023-04-03T02:19:09;0.70;;;0.70;;
75289;SDS011;63883;48.996;20.804;2023-04-03T02:21:35;0.70;;;0.70;;
75289;SDS011;63883;48.996;20.804;2023-04-03T02:24:01;2.10;;;0.80;;
75289;SDS011;63883;48.996;20.804;2023-04-03T02:26:27;1.02;;;0.90;;
75289;SDS011;63883;48.996;20.804;2023-04-03T02:28:52;0.73;;;0.73;;
75289;SDS011;63883;48.996;20.804;2023-04-03T02:31:18;0.50;;;0.50;;
75289;SDS011;63883;48.996;20.804;2023-04-03T02:33:44;0.55;;;0.55;;
75289;SDS011;63883;48.996;20.804;2023-04-03T02:36:10;0.80;;;0.80;;
75289;SDS011;63883;48.996;20.804;2023-04-03T02:38:35;0.80;;;0.80;;
75289;SDS011;63883;48.996;20.804;2023-04-03T02:41:05;1.38;;;1.00;;
75289;SDS011;63883;48.996;20.804;2023-04-03T02:43:33;0.88;;;0.88;;
75289;SDS011;63883;48.996;20.804;2023-04-03T02:45:59;1.00;;;1.00;;
75289;SDS011;63883;48.996;20.804;2023-04-03T02:48:25;0.88;;;0.88;;
75289;SDS011;63883;48.996;20.804;2023-04-03T02:50:51;0.80;;;0.80;;
75289;SDS011;63883;48.996;20.804;2023-04-03T02:53:17;0.90;;;0.90;;
75289;SDS011;63883;48.996;20.804;2023-04-03T02:55:44;0.80;;;0.80;;
75289;SDS011;63883;48.996;20.804;2023-04-03T02:58:10;0.70;;;0.70;;
75289;SDS011;63883;48.996;20.804;2023-04-03T03:00:36;0.70;;;0.60;;
75289;SDS011;63883;48.996;20.804;2023-04-03T03:03:02;0.77;;;0.77;;
75289;SDS011;63883;48.996;20.804;2023-04-03T03:05:28;0.70;;;0.70;;
75289;SDS011;63883;48.996;20.804;2023-04-03T03:07:54;1.02;;;0.63;;
75289;SDS011;63883;48.996;20.804;2023-04-03T03:10:21;0.70;;;0.70;;
75289;SDS011;63883;48.996;20.804;2023-04-03T03:12:47;0.70;;;0.70;;
75289;SDS011;63883;48.996;20.804;2023-04-03T03:15:13;0.80;;;0.80;;
75289;SDS011;63883;48.996;20.804;2023-04-03T03:17:38;0.63;;;0.63;;
75289;SDS011;63883;48.996;20.804;2023-04-03T03:20:05;0.90;;;0.90;;
75289;SDS011;63883;48.996;20.804;2023-04-03T03:22:32;0.63;;;0.63;;
75289;SDS011;63883;48.996;20.804;2023-04-03T03:24:58;0.80;;;0.80;;
75289;SDS011;63883;48.996;20.804;2023-04-03T03:27:23;0.80;;;0.80;;
75289;SDS011;63883;48.996;20.804;2023-04-03T03:29:50;1.83;;;0.82;;
75289;SDS011;63883;48.996;20.804;2023-04-03T03:32:15;0.90;;;0.90;;
75289;SDS011;63883;48.996;20.804;2023-04-03T03:34:41;0.90;;;0.90;;
75289;SDS011;63883;48.996;20.804;2023-04-03T03:37:07;0.82;;;0.82;;
75289;SDS011;63883;48.996;20.804;2023-04-03T03:39:32;0.80;;;0.80;;
75289;SDS011;63883;48.996;20.804;2023-04-03T03:41:58;1.10;;;1.00;;
75289;SDS011;63883;48.996;20.804;2023-04-03T03:44:24;0.93;;;0.80;;
75289;SDS011;63883;48.996;20.804;2023-04-03T03:46:49;0.90;;;0.90;;
75289;SDS011;63883;48.996;20.804;2023-04-03T03:49:15;0.80;;;0.80;;
75289;SDS011;63883;48.996;20.804;2023-04-03T03:51:41;0.80;;;0.80;;
75289;SDS011;63883;48.996;20.804;2023-04-03T03:54:07;0.90;;;0.90;;
75289;SDS011;63883;48.996;20.804;2023-04-03T03:56:33;1.00;;;1.00;;
75289;SDS011;63883;48.996;20.804;2023-04-03T03:58:59;1.20;;;0.90;;
75289;SDS011;63883;48.996;20.804;2023-04-03T04:01:25;0.70;;;0.70;;
75289;SDS011;63883;48.996;20.804;2023-04-03T04:03:51;0.82;;;0.82;;
75289;SDS011;63883;48.996;20.804;2023-04-03T04:06:19;2.50;;;0.82;;
75289;SDS011;63883;48.996;20.804;2023-04-03T04:08:45;0.80;;;0.80;;
75289;SDS011;63883;48.996;20.804;2023-04-03T04:11:10;0.70;;;0.70;;
75289;SDS011;63883;48.996;20.804;2023-04-03T04:13:36;0.80;;;0.80;;
75289;SDS011;63883;48.996;20.804;2023-04-03T04:16:02;0.75;;;0.75;;
75289;SDS011;63883;48.996;20.804;2023-04-03T04:18:28;0.82;;;0.82;;
75289;SDS011;63883;48.996;20.804;2023-04-03T04:20:54;0.90;;;0.90;;
75289;SDS011;63883;48.996;20.804;2023-04-03T04:23:19;0.70;;;0.70;;
75289;SDS011;63883;48.996;20.804;2023-04-03T04:25:46;0.70;;;0.70;;
75289;SDS011;63883;48.996;20.804;2023-04-03T04:28:12;0.60;;;0.60;;
75289;SDS011;63883;48.996;20.804;2023-04-03T04:30:38;0.80;;;0.80;;
75289;SDS011;63883;48.996;20.804;2023-04-03T04:33:04;0.50;;;0.50;;
75289;SDS011;63883;48.996;20.804;2023-04-03T04:35:30;0.70;;;0.70;;
75289;SDS011;63883;48.996;20.804;2023-04-03T04:37:56;0.60;;;0.60;;
75289;SDS011;63883;48.996;20.804;2023-04-03T04:40:21;0.77;;;0.77;;
75289;SDS011;63883;48.996;20.804;2023-04-03T04:42:48;0.60;;;0.60;;
75289;SDS011;63883;48.996;20.804;2023-04-03T04:45:13;0.63;;;0.63;;
75289;SDS011;63883;48.996;20.804;2023-04-03T04:47:40;0.77;;;0.68;;
75289;SDS011;63883;48.996;20.804;2023-04-03T04:50:06;0.50;;;0.50;;
75289;SDS011;63883;48.996;20.804;2023-04-03T04:52:32;0.50;;;0.50;;
75289;SDS011;63883;48.996;20.804;2023-04-03T04:54:58;0.80;;;0.80;;
75289;SDS011;63883;48.996;20.804;2023-04-03T04:57:25;0.70;;;0.70;;
75289;SDS011;63883;48.996;20.804;2023-04-03T04:59:51;0.60;;;0.60;;
75289;SDS011;63883;48.996;20.804;2023-04-03T05:02:17;0.70;;;0.70;;
75289;SDS011;63883;48.996;20.804;2023-04-03T05:04:42;0.73;;;0.73;;
75289;SDS011;63883;48.996;20.804;2023-04-03T05:07:08;0.70;;;0.70;;
75289;SDS011;63883;48.996;20.804;2023-04-03T05:09:34;1.00;;;1.00;;
75289;SDS011;63883;48.996;20.804;2023-04-03T05:12:00;1.85;;;0.70;;
75289;SDS011;63883;48.996;20.804;2023-04-03T05:14:25;0.70;;;0.70;;
75289;SDS011;63883;48.996;20.804;2023-04-03T05:16:51;0.77;;;0.70;;
75289;SDS011;63883;48.996;20.804;2023-04-03T05:19:19;0.82;;;0.82;;
75289;SDS011;63883;48.996;20.804;2023-04-03T05:21:46;0.80;;;0.80;;
75289;SDS011;63883;48.996;20.804;2023-04-03T05:24:12;0.80;;;0.80;;
75289;SDS011;63883;48.996;20.804;2023-04-03T05:26:38;0.70;;;0.70;;
75289;SDS011;63883;48.996;20.804;2023-04-03T05:29:04;0.70;;;0.70;;
75289;SDS011;63883;48.996;20.804;2023-04-03T05:31:30;0.80;;;0.80;;
75289;SDS011;63883;48.996;20.804;2023-04-03T05:33:55;0.75;;;0.73;;
75289;SDS011;63883;48.996;20.804;2023-04-03T05:36:22;0.70;;;0.70;;
75289;SDS011;63883;48.996;20.804;2023-04-03T05:38:48;0.90;;;0.90;;
75289;SDS011;63883;48.996;20.804;2023-04-03T05:41:14;1.00;;;0.93;;
75289;SDS011;63883;48.996;20.804;2023-04-03T05:43:40;2.45;;;0.90;;
75289;SDS011;63883;48.996;20.804;2023-04-03T05:46:11;0.90;;;0.90;;
75289;SDS011;63883;48.996;20.804;2023-04-03T05:48:37;0.75;;;0.75;;
75289;SDS011;63883;48.996;20.804;2023-04-03T05:51:03;1.00;;;1.00;;
75289;SDS011;63883;48.996;20.804;2023-04-03T05:53:31;3.05;;;1.55;;
75289;SDS011;63883;48.996;20.804;2023-04-03T05:56:01;1.52;;;1.20;;
75289;SDS011;63883;48.996;20.804;2023-04-03T05:58:26;1.63;;;1.40;;
75289;SDS011;63883;48.996;20.804;2023-04-03T06:00:52;0.80;;;0.80;;
75289;SDS011;63883;48.996;20.804;2023-04-03T06:03:18;6.30;;;3.10;;
75289;SDS011;63883;48.996;20.804;2023-04-03T06:05:44;1.48;;;1.15;;
75289;SDS011;63883;48.996;20.804;2023-04-03T06:08:11;3.08;;;2.17;;
75289;SDS011;63883;48.996;20.804;2023-04-03T06:10:38;1.60;;;1.10;;
75289;SDS011;63883;48.996;20.804;2023-04-03T06:13:04;1.10;;;1.10;;
75289;SDS011;63883;48.996;20.804;2023-04-03T06:15:30;1.00;;;0.90;;
75289;SDS011;63883;48.996;20.804;2023-04-03T06:17:55;6.07;;;2.85;;
75289;SDS011;63883;48.996;20.804;2023-04-03T06:20:21;7.32;;;3.45;;
75289;SDS011;63883;48.996;20.804;2023-04-03T06:22:48;1.20;;;1.10;;
75289;SDS011;63883;48.996;20.804;2023-04-03T06:25:14;1.35;;;1.25;;
75289;SDS011;63883;48.996;20.804;2023-04-03T06:27:40;1.40;;;1.30;;
75289;SDS011;63883;48.996;20.804;2023-04-03T06:30:06;0.98;;;0.82;;
75289;SDS011;63883;48.996;20.804;2023-04-03T06:32:32;7.13;;;3.35;;
75289;SDS011;63883;48.996;20.804;2023-04-03T06:34:58;3.05;;;1.77;;
75289;SDS011;63883;48.996;20.804;2023-04-03T06:37:24;4.78;;;2.45;;
75289;SDS011;63883;48.996;20.804;2023-04-03T06:39:54;7.32;;;4.10;;
75289;SDS011;63883;48.996;20.804;2023-04-03T06:42:20;2.13;;;1.15;;
75289;SDS011;63883;48.996;20.804;2023-04-03T06:44:46;0.80;;;0.80;;
75289;SDS011;63883;48.996;20.804;2023-04-03T06:47:13;2.63;;;1.58;;
75289;SDS011;63883;48.996;20.804;2023-04-03T06:49:40;3.10;;;1.60;;
75289;SDS011;63883;48.996;20.804;2023-04-03T06:52:06;1.55;;;1.05;;
75289;SDS011;63883;48.996;20.804;2023-04-03T06:54:32;0.90;;;0.90;;
75289;SDS011;63883;48.996;20.804;2023-04-03T06:56:58;1.20;;;1.10;;
75289;SDS011;63883;48.996;20.804;2023-04-03T06:59:24;1.00;;;0.80;;
75289;SDS011;63883;48.996;20.804;2023-04-03T07:01:50;0.95;;;0.95;;
75289;SDS011;63883;48.996;20.804;2023-04-03T07:04:17;0.88;;;0.88;;
75289;SDS011;63883;48.996;20.804;2023-04-03T07:06:45;0.82;;;0.82;;
75289;SDS011;63883;48.996;20.804;2023-04-03T07:09:12;1.00;;;1.00;;
75289;SDS011;63883;48.996;20.804;2023-04-03T07:11:39;0.90;;;0.90;;
75289;SDS011;63883;48.996;20.804;2023-04-03T07:14:05;1.00;;;1.00;;
75289;SDS011;63883;48.996;20.804;2023-04-03T07:16:33;2.35;;;1.70;;
75289;SDS011;63883;48.996;20.804;2023-04-03T07:19:00;1.30;;;1.20;;
75289;SDS011;63883;48.996;20.804;2023-04-03T07:21:28;3.03;;;0.90;;
75289;SDS011;63883;48.996;20.804;2023-04-03T07:23:54;0.90;;;0.90;;
75289;SDS011;63883;48.996;20.804;2023-04-03T07:26:20;1.05;;;0.82;;
75289;SDS011;63883;48.996;20.804;2023-04-03T07:28:48;0.93;;;0.93;;
75289;SDS011;63883;48.996;20.804;2023-04-03T07:31:15;16.63;;;6.03;;
75289;SDS011;63883;48.996;20.804;2023-04-03T07:33:42;1.15;;;1.15;;
75289;SDS011;63883;48.996;20.804;2023-04-03T07:36:09;2.50;;;2.10;;
75289;SDS011;63883;48.996;20.804;2023-04-03T07:38:36;4.28;;;2.90;;
75289;SDS011;63883;48.996;20.804;2023-04-03T07:41:03;5.20;;;2.80;;
75289;SDS011;63883;48.996;20.804;2023-04-03T07:43:29;1.48;;;1.17;;
75289;SDS011;63883;48.996;20.804;2023-04-03T07:45:55;1.08;;;1.02;;
75289;SDS011;63883;48.996;20.804;2023-04-03T07:48:22;1.30;;;1.20;;
75289;SDS011;63883;48.996;20.804;2023-04-03T07:50:49;0.88;;;0.88;;
75289;SDS011;63883;48.996;20.804;2023-04-03T07:53:15;1.05;;;1.05;;
75289;SDS011;63883;48.996;20.804;2023-04-03T07:55:41;0.80;;;0.80;;
75289;SDS011;63883;48.996;20.804;2023-04-03T07:58:10;1.30;;;0.77;;
75289;SDS011;63883;48.996;20.804;2023-04-03T08:00:37;0.90;;;0.90;;
75289;SDS011;63883;48.996;20.804;2023-04-03T08:03:03;0.80;;;0.80;;
75289;SDS011;63883;48.996;20.804;2023-04-03T08:05:28;0.95;;;0.95;;
75289;SDS011;63883;48.996;20.804;2023-04-03T08:07:54;1.00;;;1.00;;
75289;SDS011;63883;48.996;20.804;2023-04-03T08:10:20;0.80;;;0.80;;
75289;SDS011;63883;48.996;20.804;2023-04-03T08:12:46;1.25;;;1.00;;
75289;SDS011;63883;48.996;20.804;2023-04-03T08:15:12;1.00;;;1.00;;
75289;SDS011;63883;48.996;20.804;2023-04-03T08:17:38;1.02;;;1.00;;
75289;SDS011;63883;48.996;20.804;2023-04-03T08:20:05;1.08;;;0.90;;
75289;SDS011;63883;48.996;20.804;2023-04-03T08:22:32;0.90;;;0.90;;
75289;SDS011;63883;48.996;20.804;2023-04-03T08:24:58;0.82;;;0.82;;
75289;SDS011;63883;48.996;20.804;2023-04-03T08:27:25;0.90;;;0.90;;
75289;SDS011;63883;48.996;20.804;2023-04-03T08:29:51;2.63;;;1.48;;
75289;SDS011;63883;48.996;20.804;2023-04-03T08:32:17;3.10;;;2.13;;
75289;SDS011;63883;48.996;20.804;2023-04-03T08:34:44;6.25;;;3.38;;
75289;SDS011;63883;48.996;20.804;2023-04-03T08:37:10;2.67;;;1.90;;
75289;SDS011;63883;48.996;20.804;2023-04-03T08:39:36;4.22;;;2.90;;
75289;SDS011;63883;48.996;20.804;2023-04-03T08:42:03;1.83;;;1.73;;
75289;SDS011;63883;48.996;20.804;2023-04-03T08:49:44;1.40;;;1.30;;
75289;SDS011;63883;48.996;20.804;2023-04-03T08:52:17;1.10;;;1.00;;
75289;SDS011;63883;48.996;20.804;2023-04-03T08:57:40;1.00;;;1.00;;
75289;SDS011;63883;48.996;20.804;2023-04-03T09:05:18;1.23;;;0.98;;
75289;SDS011;63883;48.996;20.804;2023-04-03T09:07:55;1.70;;;1.20;;
75289;SDS011;63883;48.996;20.804;2023-04-03T09:10:27;0.90;;;0.90;;
75289;SDS011;63883;48.996;20.804;2023-04-03T09:13:01;0.88;;;0.88;;
75289;SDS011;63883;48.996;20.804;2023-04-03T09:15:36;0.80;;;0.80;;
75289;SDS011;63883;48.996;20.804;2023-04-03T09:18:21;1.25;;;1.08;;
75289;SDS011;63883;48.996;20.804;2023-04-03T09:25:56;1.48;;;1.38;;
75289;SDS011;63883;48.996;20.804;2023-04-03T09:28:31;1.08;;;1.08;;
75289;SDS011;63883;48.996;20.804;2023-04-03T09:31:00;1.00;;;1.00;;
75289;SDS011;63883;48.996;20.804;2023-04-03T09:33:27;1.48;;;1.10;;
75289;SDS011;63883;48.996;20.804;2023-04-03T09:35:55;0.90;;;0.90;;
75289;SDS011;63883;48.996;20.804;2023-04-03T09:38:21;1.20;;;1.10;;
75289;SDS011;63883;48.996;20.804;2023-04-03T09:41:06;1.40;;;1.30;;
75289;SDS011;63883;48.996;20.804;2023-04-03T09:43:39;2.42;;;1.60;;
75289;SDS011;63883;48.996;20.804;2023-04-03T09:48:51;0.90;;;0.90;;
75289;SDS011;63883;48.996;20.804;2023-04-03T09:51:25;0.85;;;0.85;;
75289;SDS011;63883;48.996;20.804;2023-04-03T09:53:54;0.90;;;0.90;;
75289;SDS011;63883;48.996;20.804;2023-04-03T10:01:29;1.15;;;1.00;;
75289;SDS011;63883;48.996;20.804;2023-04-03T10:06:53;1.60;;;1.02;;
75289;SDS011;63883;48.996;20.804;2023-04-03T10:12:00;0.80;;;0.80;;
75289;SDS011;63883;48.996;20.804;2023-04-03T10:14:38;1.10;;;1.00;;
75289;SDS011;63883;48.996;20.804;2023-04-03T10:17:13;1.00;;;0.93;;
75289;SDS011;63883;48.996;20.804;2023-04-03T10:19:58;1.25;;;1.00;;
75289;SDS011;63883;48.996;20.804;2023-04-03T10:22:39;1.00;;;1.00;;
75289;SDS011;63883;48.996;20.804;2023-04-03T10:28:27;2.97;;;1.52;;
75289;SDS011;63883;48.996;20.804;2023-04-03T10:31:01;2.42;;;1.60;;
75289;SDS011;63883;48.996;20.804;2023-04-03T10:39:32;1.52;;;1.30;;
75289;SDS011;63883;48.996;20.804;2023-04-03T10:42:03;1.40;;;1.30;;
75289;SDS011;63883;48.996;20.804;2023-04-03T10:50:00;1.30;;;1.20;;
75289;SDS011;63883;48.996;20.804;2023-04-03T10:52:33;1.27;;;1.10;;
75289;SDS011;63883;48.996;20.804;2023-04-03T10:57:50;1.20;;;1.10;;
75289;SDS011;63883;48.996;20.804;2023-04-03T11:00:16;1.58;;;1.48;;
75289;SDS011;63883;48.996;20.804;2023-04-03T11:07:56;1.67;;;1.58;;
75289;SDS011;63883;48.996;20.804;2023-04-03T11:13:34;1.40;;;1.30;;
75289;SDS011;63883;48.996;20.804;2023-04-03T11:15:59;3.17;;;2.35;;
75289;SDS011;63883;48.996;20.804;2023-04-03T11:18:37;1.42;;;1.35;;
75289;SDS011;63883;48.996;20.804;2023-04-03T11:23:47;1.40;;;1.30;;
75289;SDS011;63883;48.996;20.804;2023-04-03T11:26:14;1.60;;;1.40;;
75289;SDS011;63883;48.996;20.804;2023-04-03T11:28:42;1.73;;;1.40;;
75289;SDS011;63883;48.996;20.804;2023-04-03T11:36:45;1.50;;;1.40;;
75289;SDS011;63883;48.996;20.804;2023-04-03T11:39:17;1.38;;;1.27;;
75289;SDS011;63883;48.996;20.804;2023-04-03T11:41:44;2.42;;;2.10;;
75289;SDS011;63883;48.996;20.804;2023-04-03T11:44:30;4.38;;;2.42;;
75289;SDS011;63883;48.996;20.804;2023-04-03T11:47:00;5.15;;;3.15;;
75289;SDS011;63883;48.996;20.804;2023-04-03T12:05:52;1.50;;;1.40;;
75289;SDS011;63883;48.996;20.804;2023-04-03T12:16:20;3.85;;;1.40;;
75289;SDS011;63883;48.996;20.804;2023-04-03T12:24:29;2.00;;;1.80;;
75289;SDS011;63883;48.996;20.804;2023-04-03T12:40:03;1.48;;;1.38;;
75289;SDS011;63883;48.996;20.804;2023-04-03T12:42:51;1.65;;;1.48;;
75289;SDS011;63883;48.996;20.804;2023-04-03T12:45:30;1.50;;;1.40;;
75289;SDS011;63883;48.996;20.804;2023-04-03T12:48:09;1.58;;;1.48;;
75289;SDS011;63883;48.996;20.804;2023-04-03T12:50:39;2.28;;;1.92;;
75289;SDS011;63883;48.996;20.804;2023-04-03T12:53:10;2.08;;;1.80;;
75289;SDS011;63883;48.996;20.804;2023-04-03T12:55:38;2.28;;;1.60;;
75289;SDS011;63883;48.996;20.804;2023-04-03T13:01:01;1.50;;;1.40;;
75289;SDS011;63883;48.996;20.804;2023-04-03T13:03:38;1.50;;;1.40;;
75289;SDS011;63883;48.996;20.804;2023-04-03T13:06:06;1.50;;;1.40;;
75289;SDS011;63883;48.996;20.804;2023-04-03T13:08:32;1.60;;;1.50;;
75289;SDS011;63883;48.996;20.804;2023-04-03T13:10:59;1.60;;;1.50;;
75289;SDS011;63883;48.996;20.804;2023-04-03T13:13:29;1.88;;;1.40;;
75289;SDS011;63883;48.996;20.804;2023-04-03T13:15:55;1.90;;;1.70;;
75289;SDS011;63883;48.996;20.804;2023-04-03T13:18:22;2.75;;;2.17;;
75289;SDS011;63883;48.996;20.804;2023-04-03T13:20:51;2.45;;;1.80;;
75289;SDS011;63883;48.996;20.804;2023-04-03T13:23:18;4.70;;;2.78;;
75289;SDS011;63883;48.996;20.804;2023-04-03T13:25:46;5.10;;;2.97;;
75289;SDS011;63883;48.996;20.804;2023-04-03T13:28:13;3.95;;;2.47;;
75289;SDS011;63883;48.996;20.804;2023-04-03T13:30:56;2.20;;;2.00;;
75289;SDS011;63883;48.996;20.804;2023-04-03T13:33:25;3.45;;;2.35;;
75289;SDS011;63883;48.996;20.804;2023-04-03T13:35:54;6.05;;;3.25;;
75289;SDS011;63883;48.996;20.804;2023-04-03T13:38:24;7.35;;;4.00;;
75289;SDS011;63883;48.996;20.804;2023-04-03T13:40:53;2.75;;;1.92;;
75289;SDS011;63883;48.996;20.804;2023-04-03T13:43:24;2.50;;;1.85;;
75289;SDS011;63883;48.996;20.804;2023-04-03T13:48:27;3.33;;;2.03;;
75289;SDS011;63883;48.996;20.804;2023-04-03T13:51:02;3.08;;;2.00;;
75289;SDS011;63883;48.996;20.804;2023-04-03T13:53:31;2.38;;;2.10;;
75289;SDS011;63883;48.996;20.804;2023-04-03T13:58:25;3.88;;;2.05;;
75289;SDS011;63883;48.996;20.804;2023-04-03T14:03:46;2.58;;;1.75;;
75289;SDS011;63883;48.996;20.804;2023-04-03T14:06:17;2.67;;;2.03;;
75289;SDS011;63883;48.996;20.804;2023-04-03T14:08:44;2.65;;;2.08;;
75289;SDS011;63883;48.996;20.804;2023-04-03T14:11:17;3.45;;;2.08;;
75289;SDS011;63883;48.996;20.804;2023-04-03T14:13:46;3.13;;;2.60;;
75289;SDS011;63883;48.996;20.804;2023-04-03T14:16:20;3.42;;;2.38;;
75289;SDS011;63883;48.996;20.804;2023-04-03T14:18:50;4.63;;;2.42;;
75289;SDS011;63883;48.996;20.804;2023-04-03T14:21:16;3.53;;;2.03;;
75289;SDS011;63883;48.996;20.804;2023-04-03T14:23:44;5.47;;;3.08;;
75289;SDS011;63883;48.996;20.804;2023-04-03T14:26:15;3.00;;;2.10;;
75289;SDS011;63883;48.996;20.804;2023-04-03T14:28:48;2.92;;;2.38;;
75289;SDS011;63883;48.996;20.804;2023-04-03T14:31:16;3.35;;;2.22;;
75289;SDS011;63883;48.996;20.804;2023-04-03T14:33:43;9.27;;;4.72;;
75289;SDS011;63883;48.996;20.804;2023-04-03T14:36:13;4.10;;;2.72;;
75289;SDS011;63883;48.996;20.804;2023-04-03T14:38:41;3.70;;;2.60;;
75289;SDS011;63883;48.996;20.804;2023-04-03T14:41:08;3.15;;;2.28;;
75289;SDS011;63883;48.996;20.804;2023-04-03T14:43:37;2.30;;;2.10;;
75289;SDS011;63883;48.996;20.804;2023-04-03T14:46:04;3.78;;;2.47;;
75289;SDS011;63883;48.996;20.804;2023-04-03T14:48:30;5.13;;;2.50;;
75289;SDS011;63883;48.996;20.804;2023-04-03T14:50:56;3.05;;;2.28;;
75289;SDS011;63883;48.996;20.804;2023-04-03T14:53:22;3.63;;;2.45;;
75289;SDS011;63883;48.996;20.804;2023-04-03T14:55:50;3.83;;;2.13;;
75289;SDS011;63883;48.996;20.804;2023-04-03T14:58:17;3.75;;;2.47;;
75289;SDS011;63883;48.996;20.804;2023-04-03T15:00:44;4.38;;;2.80;;
75289;SDS011;63883;48.996;20.804;2023-04-03T15:03:17;3.30;;;2.45;;
75289;SDS011;63883;48.996;20.804;2023-04-03T15:05:45;3.53;;;2.47;;
75289;SDS011;63883;48.996;20.804;2023-04-03T15:08:25;5.10;;;2.67;;
75289;SDS011;63883;48.996;20.804;2023-04-03T15:10:54;3.55;;;2.28;;
75289;SDS011;63883;48.996;20.804;2023-04-03T15:13:24;4.60;;;2.40;;
75289;SDS011;63883;48.996;20.804;2023-04-03T15:15:50;3.85;;;2.25;;
75289;SDS011;63883;48.996;20.804;2023-04-03T15:18:21;3.92;;;2.53;;
75289;SDS011;63883;48.996;20.804;2023-04-03T15:20:49;2.53;;;1.88;;
75289;SDS011;63883;48.996;20.804;2023-04-03T15:23:16;3.75;;;2.35;;
75289;SDS011;63883;48.996;20.804;2023-04-03T15:25:42;3.22;;;2.13;;
75289;SDS011;63883;48.996;20.804;2023-04-03T15:28:23;4.55;;;2.35;;
75289;SDS011;63883;48.996;20.804;2023-04-03T15:30:53;5.57;;;2.58;;
75289;SDS011;63883;48.996;20.804;2023-04-03T15:33:19;6.63;;;3.78;;
75289;SDS011;63883;48.996;20.804;2023-04-03T15:35:44;3.85;;;2.60;;
75289;SDS011;63883;48.996;20.804;2023-04-03T15:38:10;5.53;;;2.95;;
75289;SDS011;63883;48.996;20.804;2023-04-03T15:40:36;5.38;;;2.75;;
75289;SDS011;63883;48.996;20.804;2023-04-03T15:43:03;5.95;;;2.50;;
75289;SDS011;63883;48.996;20.804;2023-04-03T15:45:29;3.40;;;2.22;;
75289;SDS011;63883;48.996;20.804;2023-04-03T15:47:57;6.97;;;3.63;;
75289;SDS011;63883;48.996;20.804;2023-04-03T15:50:23;5.53;;;2.70;;
75289;SDS011;63883;48.996;20.804;2023-04-03T15:52:52;3.65;;;2.33;;
75289;SDS011;63883;48.996;20.804;2023-04-03T15:55:26;3.90;;;2.58;;
75289;SDS011;63883;48.996;20.804;2023-04-03T15:57:54;3.90;;;2.50;;
75289;SDS011;63883;48.996;20.804;2023-04-03T16:00:20;3.83;;;2.08;;
75289;SDS011;63883;48.996;20.804;2023-04-03T16:02:48;3.53;;;2.50;;
75289;SDS011;63883;48.996;20.804;2023-04-03T16:05:20;4.25;;;2.33;;
75289;SDS011;63883;48.996;20.804;2023-04-03T16:07:46;2.92;;;2.35;;
75289;SDS011;63883;48.996;20.804;2023-04-03T16:10:13;6.03;;;2.60;;
75289;SDS011;63883;48.996;20.804;2023-04-03T16:15:06;3.85;;;2.40;;
75289;SDS011;63883;48.996;20.804;2023-04-03T16:17:33;5.10;;;3.00;;
75289;SDS011;63883;48.996;20.804;2023-04-03T16:20:00;7.25;;;3.88;;
75289;SDS011;63883;48.996;20.804;2023-04-03T16:22:28;7.28;;;3.55;;
75289;SDS011;63883;48.996;20.804;2023-04-03T16:24:55;6.90;;;3.67;;
75289;SDS011;63883;48.996;20.804;2023-04-03T16:27:21;6.85;;;3.20;;
75289;SDS011;63883;48.996;20.804;2023-04-03T16:29:51;4.13;;;2.72;;
75289;SDS011;63883;48.996;20.804;2023-04-03T16:32:17;6.75;;;2.97;;
75289;SDS011;63883;48.996;20.804;2023-04-03T16:34:42;4.40;;;2.60;;
75289;SDS011;63883;48.996;20.804;2023-04-03T16:37:08;5.18;;;2.42;;
75289;SDS011;63883;48.996;20.804;2023-04-03T16:39:34;5.18;;;2.58;;
75289;SDS011;63883;48.996;20.804;2023-04-03T16:42:01;3.05;;;2.10;;
75289;SDS011;63883;48.996;20.804;2023-04-03T16:44:26;5.35;;;2.75;;
75289;SDS011;63883;48.996;20.804;2023-04-03T16:46:52;5.88;;;2.80;;